Time;durP1;ratioP1;P1;durP2;ratioP2;P2;SDS_P1;SDS_P2;PMS_P1;PMS_P2;Temp;Humidity;BMP_temperature;BMP_pressure;BME280_temperature;BME280_humidity;BME280_pressure;Samples;Min_cycle;Max_cycle;Signal;HPM_P1;HPM_P2
2023/07/22 00:00:40;;;;;;;3.27;2.80;;;23.90;49.80;;;;;;5043653;28;21341;-46
2023/07/22 00:03:06;;;;;;;3.00;2.70;;;23.90;49.70;;;;;;5048896;28;20184;-44
2023/07/22 00:05:31;;;;;;;3.60;2.73;;;23.90;49.60;;;;;;5049192;28;20286;-44
2023/07/22 00:07:57;;;;;;;5.00;2.50;;;23.80;49.70;;;;;;5053345;28;20644;-46
2023/07/22 00:10:22;;;;;;;4.63;2.73;;;23.70;49.80;;;;;;5049767;28;20197;-45
2023/07/22 00:12:48;;;;;;;4.37;2.80;;;23.60;50.40;;;;;;5050188;28;20192;-47
2023/07/22 00:15:14;;;;;;;3.10;2.73;;;23.60;50.90;;;;;;5049000;28;20287;-44
2023/07/22 00:17:41;;;;;;;3.10;2.67;;;23.60;50.70;;;;;;5051499;28;20194;-45
2023/07/22 00:20:10;;;;;;;3.60;2.33;;;23.60;50.70;;;;;;5051005;28;20363;-45
2023/07/22 00:22:42;;;;;;;2.60;2.27;;;23.40;51.50;;;;;;5050916;28;20461;-44
2023/07/22 00:25:10;;;;;;;3.23;2.90;;;23.40;51.70;;;;;;5049747;28;20493;-45
2023/07/22 00:27:40;;;;;;;3.17;2.97;;;23.40;51.80;;;;;;5046760;28;20443;-46
2023/07/22 00:30:07;;;;;;;3.73;2.90;;;23.40;51.50;;;;;;5048222;28;20440;-44
2023/07/22 00:32:33;;;;;;;3.80;2.70;;;23.40;51.80;;;;;;5050584;28;20431;-44
2023/07/22 00:34:58;;;;;;;6.13;2.93;;;23.30;52.20;;;;;;5048597;28;20505;-45
2023/07/22 00:37:25;;;;;;;5.77;3.00;;;23.00;52.70;;;;;;5049635;28;20197;-44
2023/07/22 00:39:51;;;;;;;2.70;2.50;;;22.70;53.30;;;;;;5046555;28;20208;-44
2023/07/22 00:42:16;;;;;;;5.23;2.70;;;22.50;53.70;;;;;;5050762;28;20451;-44
2023/07/22 00:44:42;;;;;;;2.40;2.23;;;22.40;54.10;;;;;;5049392;28;20274;-45
2023/07/22 00:47:08;;;;;;;2.53;2.30;;;22.50;54.00;;;;;;5052564;28;20921;-44
2023/07/22 00:49:35;;;;;;;2.83;2.53;;;22.30;54.30;;;;;;5040682;28;20193;-44
2023/07/22 00:52:02;;;;;;;2.83;2.10;;;22.40;54.00;;;;;;5046187;28;21039;-44
2023/07/22 00:54:29;;;;;;;3.80;3.00;;;22.50;53.80;;;;;;5045277;28;20798;-46
2023/07/22 00:56:56;;;;;;;2.80;2.53;;;22.60;53.70;;;;;;5048641;28;20443;-44
2023/07/22 00:59:21;;;;;;;3.03;2.83;;;22.60;53.60;;;;;;5048174;28;20531;-44
2023/07/22 01:01:47;;;;;;;3.53;2.73;;;22.70;53.50;;;;;;5040669;28;21410;-46
2023/07/22 01:04:15;;;;;;;3.77;2.67;;;22.70;53.20;;;;;;5047215;28;20236;-45
2023/07/22 01:06:43;;;;;;;3.10;2.70;;;22.70;53.20;;;;;;5044638;28;20193;-45
2023/07/22 01:09:09;;;;;;;3.00;2.80;;;22.40;53.70;;;;;;5044839;28;20497;-45
2023/07/22 01:11:35;;;;;;;3.10;2.80;;;22.40;54.10;;;;;;5046030;28;20447;-44
2023/07/22 01:14:01;;;;;;;4.70;2.77;;;22.60;53.90;;;;;;5040467;28;20703;-44
2023/07/22 01:16:27;;;;;;;5.17;3.27;;;22.60;53.60;;;;;;5044691;28;20330;-46
2023/07/22 01:18:54;;;;;;;3.07;2.83;;;22.40;54.30;;;;;;5047330;28;20446;-45
2023/07/22 01:21:24;;;;;;;3.20;2.80;;;22.40;54.30;;;;;;5044820;28;20447;-44
2023/07/22 01:23:50;;;;;;;3.40;3.10;;;22.50;54.20;;;;;;5042276;28;20439;-44
2023/07/22 01:26:16;;;;;;;3.10;2.73;;;22.60;53.70;;;;;;5044842;28;20442;-45
2023/07/22 01:28:43;;;;;;;2.70;2.50;;;22.60;53.60;;;;;;5047217;28;20533;-45
2023/07/22 01:31:09;;;;;;;3.60;3.00;;;22.50;53.80;;;;;;5051594;28;22651;-44
2023/07/22 01:33:34;;;;;;;4.13;3.00;;;22.30;54.50;;;;;;5046616;28;20454;-44
2023/07/22 01:36:01;;;;;;;3.47;2.53;;;22.00;55.00;;;;;;5043626;28;20196;-43
2023/07/22 01:38:29;;;;;;;3.20;2.70;;;22.00;55.20;;;;;;5058740;28;20622;-45
2023/07/22 01:40:54;;;;;;;3.40;3.00;;;22.10;54.60;;;;;;5047760;28;20450;-44
2023/07/22 01:43:20;;;;;;;3.00;2.50;;;22.20;54.30;;;;;;5049151;28;20439;-43
2023/07/22 01:45:46;;;;;;;3.17;2.70;;;22.30;54.00;;;;;;5049955;28;20188;-44
2023/07/22 01:48:12;;;;;;;4.23;3.00;;;22.50;53.80;;;;;;5050011;28;20430;-44
2023/07/22 01:50:37;;;;;;;3.63;2.90;;;22.50;53.50;;;;;;5048417;28;20622;-44
2023/07/22 01:53:05;;;;;;;4.03;2.60;;;22.60;53.60;;;;;;5045852;28;20207;-46
2023/07/22 01:55:32;;;;;;;4.83;2.53;;;22.60;52.90;;;;;;5049244;28;20227;-45
2023/07/22 01:57:58;;;;;;;3.10;2.50;;;22.60;53.30;;;;;;5047218;28;20807;-46
2023/07/22 02:00:23;;;;;;;2.63;2.43;;;22.50;53.50;;;;;;5061930;28;20442;-47
2023/07/22 02:02:49;;;;;;;3.30;3.00;;;22.50;53.40;;;;;;5044398;28;20806;-43
2023/07/22 02:05:15;;;;;;;4.17;2.80;;;22.60;52.90;;;;;;5046090;28;20294;-45
2023/07/22 02:07:40;;;;;;;2.90;2.70;;;22.60;53.20;;;;;;5049104;28;20196;-47
2023/07/22 02:10:06;;;;;;;4.63;3.10;;;22.50;53.10;;;;;;5047001;28;20618;-44
2023/07/22 02:12:32;;;;;;;3.30;3.00;;;22.60;52.80;;;;;;5052402;28;20196;-44
2023/07/22 02:14:57;;;;;;;2.93;2.70;;;22.50;52.70;;;;;;5047367;28;20487;-44
2023/07/22 02:17:23;;;;;;;3.07;2.60;;;22.40;52.80;;;;;;5047381;28;20299;-45
2023/07/22 02:19:49;;;;;;;3.17;2.87;;;22.40;52.80;;;;;;5046892;28;20193;-44
2023/07/22 02:22:15;;;;;;;3.00;2.70;;;22.30;53.30;;;;;;5046289;28;21189;-46
2023/07/22 02:24:40;;;;;;;4.47;2.57;;;22.20;53.10;;;;;;5041639;28;20443;-45
2023/07/22 02:27:08;;;;;;;3.80;3.50;;;22.30;53.40;;;;;;5051715;28;20245;-44
2023/07/22 02:29:34;;;;;;;3.47;2.60;;;22.30;53.00;;;;;;5047479;28;20311;-45
2023/07/22 02:31:59;;;;;;;2.93;2.13;;;22.30;53.10;;;;;;5046526;28;20530;-46
2023/07/22 02:34:25;;;;;;;3.37;3.07;;;22.30;52.70;;;;;;5047538;28;20224;-44
2023/07/22 02:36:50;;;;;;;2.80;2.60;;;22.20;52.80;;;;;;5053600;28;20189;-46
2023/07/22 02:39:16;;;;;;;4.60;2.83;;;22.20;53.10;;;;;;5060392;28;20200;-45
2023/07/22 02:41:41;;;;;;;5.03;3.10;;;22.30;53.20;;;;;;5049207;28;20193;-45
2023/07/22 02:44:07;;;;;;;5.00;2.87;;;22.20;53.10;;;;;;5048821;28;20232;-45
2023/07/22 02:46:33;;;;;;;2.97;2.67;;;22.20;53.00;;;;;;5059390;28;20184;-45
2023/07/22 02:48:59;;;;;;;3.37;2.97;;;22.10;53.00;;;;;;5044234;28;20538;-44
2023/07/22 02:51:24;;;;;;;3.90;3.37;;;21.90;53.30;;;;;;5053111;28;20710;-45
2023/07/22 02:53:50;;;;;;;2.93;2.70;;;21.80;53.50;;;;;;5044509;28;20293;-43
2023/07/22 02:56:16;;;;;;;3.80;3.20;;;21.70;53.80;;;;;;5046534;28;20200;-44
2023/07/22 02:58:44;;;;;;;3.27;2.93;;;21.60;53.90;;;;;;5052295;28;20656;-44
2023/07/22 03:01:10;;;;;;;3.43;2.80;;;21.40;54.30;;;;;;5049656;28;20240;-46
2023/07/22 03:03:36;;;;;;;4.67;2.93;;;21.20;55.20;;;;;;5050367;28;20451;-43
2023/07/22 03:06:03;;;;;;;3.73;3.00;;;21.10;55.20;;;;;;5037683;28;20439;-45
2023/07/22 03:08:29;;;;;;;3.00;2.70;;;21.10;55.30;;;;;;5055752;28;20439;-44
2023/07/22 03:10:55;;;;;;;4.90;2.73;;;21.00;55.80;;;;;;5050461;28;20447;-46
2023/07/22 03:13:20;;;;;;;4.17;3.80;;;21.00;55.70;;;;;;5053346;28;20452;-46
2023/07/22 03:15:46;;;;;;;3.33;2.87;;;21.00;55.90;;;;;;5046294;28;20278;-45
2023/07/22 03:18:11;;;;;;;5.57;3.60;;;21.00;56.00;;;;;;5049775;28;20185;-44
2023/07/22 03:20:38;;;;;;;4.10;3.70;;;21.00;56.10;;;;;;5051522;28;20670;-44
2023/07/22 03:23:05;;;;;;;3.90;3.60;;;20.80;56.50;;;;;;5049392;28;20276;-44
2023/07/22 03:25:32;;;;;;;3.40;3.10;;;20.80;56.80;;;;;;5051139;28;20455;-44
2023/07/22 03:27:58;;;;;;;3.57;3.23;;;20.70;56.70;;;;;;5050291;28;20451;-44
2023/07/22 03:30:23;;;;;;;3.53;3.23;;;20.30;57.60;;;;;;5049623;28;20439;-43
2023/07/22 03:32:52;;;;;;;3.30;3.10;;;20.20;57.90;;;;;;5049780;28;20500;-44
2023/07/22 03:35:17;;;;;;;3.83;3.53;;;19.90;58.70;;;;;;5048120;28;20312;-44
2023/07/22 03:37:43;;;;;;;4.77;3.10;;;19.90;58.90;;;;;;5051736;28;20550;-43
2023/07/22 03:40:20;;;;;;;3.27;3.00;;;20.00;58.70;;;;;;5044506;28;20188;-43
2023/07/22 03:42:50;;;;;;;3.50;3.20;;;20.30;58.00;;;;;;5051664;28;20648;-47
2023/07/22 03:45:17;;;;;;;3.77;3.47;;;20.30;57.70;;;;;;5047510;28;20478;-43
2023/07/22 03:47:46;;;;;;;5.43;2.97;;;20.30;57.70;;;;;;5052500;28;20565;-43
2023/07/22 03:50:12;;;;;;;4.57;3.70;;;20.40;57.20;;;;;;5046706;28;20918;-44
2023/07/22 03:52:38;;;;;;;5.97;3.73;;;20.30;57.40;;;;;;5053387;28;20525;-45
2023/07/22 03:55:05;;;;;;;4.33;3.20;;;20.40;57.80;;;;;;5057959;28;20652;-44
2023/07/22 03:57:31;;;;;;;4.67;3.47;;;20.40;57.20;;;;;;5052122;28;20201;-46
2023/07/22 03:59:57;;;;;;;3.33;3.10;;;20.40;56.90;;;;;;5050252;28;20443;-44
2023/07/22 04:02:23;;;;;;;3.07;2.87;;;20.50;56.70;;;;;;5049344;28;20831;-44
2023/07/22 04:04:49;;;;;;;5.70;3.00;;;20.40;56.80;;;;;;5045521;28;20531;-45
2023/07/22 04:07:15;;;;;;;3.20;2.90;;;20.30;57.20;;;;;;5056022;28;20449;-44
2023/07/22 04:09:41;;;;;;;3.47;3.17;;;20.30;57.60;;;;;;5051769;28;20817;-49
2023/07/22 04:12:07;;;;;;;3.53;3.27;;;20.30;57.20;;;;;;5050527;28;20195;-44
2023/07/22 04:14:33;;;;;;;3.17;2.97;;;20.30;57.10;;;;;;5049485;28;20703;-45
2023/07/22 04:16:58;;;;;;;3.80;3.50;;;20.40;57.00;;;;;;5048690;28;20446;-45
2023/07/22 04:19:24;;;;;;;3.90;3.10;;;20.40;57.10;;;;;;5048731;28;20220;-48
2023/07/22 04:21:49;;;;;;;3.27;2.97;;;20.50;56.80;;;;;;5045191;28;20638;-44
2023/07/22 04:24:15;;;;;;;2.80;2.60;;;20.40;57.30;;;;;;5050030;28;20207;-46
2023/07/22 04:26:42;;;;;;;3.30;2.80;;;20.50;57.20;;;;;;5050091;28;20223;-46
2023/07/22 04:29:09;;;;;;;2.87;2.60;;;20.50;56.70;;;;;;5052137;28;20208;-45
2023/07/22 04:31:34;;;;;;;2.90;2.60;;;20.40;56.90;;;;;;5045884;28;20459;-44
2023/07/22 04:34:00;;;;;;;3.20;2.90;;;20.40;57.30;;;;;;5048389;28;20524;-43
2023/07/22 04:36:25;;;;;;;4.00;3.60;;;20.50;57.10;;;;;;5049655;28;20196;-44
2023/07/22 04:38:51;;;;;;;4.67;3.30;;;20.50;56.90;;;;;;5047208;28;20568;-44
2023/07/22 04:41:17;;;;;;;2.70;2.50;;;20.50;56.60;;;;;;5045537;28;20201;-44
2023/07/22 04:43:42;;;;;;;3.00;2.70;;;20.50;56.80;;;;;;5046926;28;20189;-44
2023/07/22 04:46:08;;;;;;;3.90;2.83;;;20.50;56.90;;;;;;5045410;28;20242;-45
2023/07/22 04:48:34;;;;;;;3.30;3.03;;;20.50;56.80;;;;;;5050273;28;20184;-45
2023/07/22 04:51:00;;;;;;;4.07;3.20;;;20.60;57.10;;;;;;5049101;28;20447;-45
2023/07/22 04:53:25;;;;;;;3.30;3.10;;;20.60;56.80;;;;;;5050790;28;20445;-45
2023/07/22 04:55:51;;;;;;;4.07;2.67;;;20.50;57.10;;;;;;5053487;28;20232;-44
2023/07/22 04:58:17;;;;;;;4.20;3.50;;;20.50;57.40;;;;;;5049349;28;20189;-44
2023/07/22 05:00:43;;;;;;;4.27;3.40;;;20.50;57.30;;;;;;5048999;28;20193;-44
2023/07/22 05:03:08;;;;;;;3.73;2.90;;;20.50;57.50;;;;;;5048594;28;20481;-45
2023/07/22 05:05:35;;;;;;;3.57;3.03;;;20.20;58.50;;;;;;5044165;28;20287;-44
2023/07/22 05:08:01;;;;;;;4.67;3.50;;;19.90;58.90;;;;;;5044030;28;20712;-45
2023/07/22 05:10:28;;;;;;;3.97;2.90;;;20.00;59.00;;;;;;5048377;28;20509;-47
2023/07/22 05:12:54;;;;;;;4.10;3.53;;;20.20;58.80;;;;;;5048256;28;20450;-45
2023/07/22 05:15:20;;;;;;;3.80;3.50;;;20.40;58.30;;;;;;5048895;28;20494;-46
2023/07/22 05:17:46;;;;;;;4.27;3.37;;;19.90;58.90;;;;;;5047432;28;20439;-44
2023/07/22 05:20:12;;;;;;;2.97;2.60;;;19.70;61.30;;;;;;5041326;28;20289;-45
2023/07/22 05:22:39;;;;;;;4.73;2.90;;;19.90;61.30;;;;;;5045278;28;20446;-44
2023/07/22 05:25:06;;;;;;;3.93;2.87;;;20.30;60.00;;;;;;5047317;28;21022;-46
2023/07/22 05:27:33;;;;;;;3.13;2.83;;;20.70;59.00;;;;;;5049723;28;20470;-45
2023/07/22 05:29:58;;;;;;;2.87;2.67;;;20.90;58.00;;;;;;5052872;28;20437;-46
2023/07/22 05:32:24;;;;;;;3.20;2.90;;;21.00;57.20;;;;;;5056213;28;20211;-44
2023/07/22 05:34:50;;;;;;;4.90;3.63;;;21.10;57.80;;;;;;5049924;28;20739;-45
2023/07/22 05:37:15;;;;;;;3.20;2.90;;;21.30;57.20;;;;;;5047112;28;20192;-46
2023/07/22 05:39:41;;;;;;;3.20;2.40;;;21.30;56.90;;;;;;5043260;28;20644;-45
2023/07/22 05:42:06;;;;;;;2.90;2.27;;;21.30;56.90;;;;;;5043829;28;20276;-45
2023/07/22 05:44:32;;;;;;;4.57;3.10;;;21.30;56.80;;;;;;5046384;28;20189;-46
2023/07/22 05:46:58;;;;;;;2.93;2.10;;;21.40;56.90;;;;;;5045358;28;20203;-45
2023/07/22 05:49:24;;;;;;;3.17;2.87;;;21.40;57.00;;;;;;5048189;28;20219;-45
2023/07/22 05:51:49;;;;;;;3.47;2.70;;;21.50;56.50;;;;;;5047678;28;20283;-46
2023/07/22 05:54:15;;;;;;;4.70;2.50;;;21.60;56.40;;;;;;5048027;28;20232;-44
2023/07/22 05:56:41;;;;;;;3.40;3.00;;;21.70;56.20;;;;;;5048717;28;20204;-46
2023/07/22 05:59:07;;;;;;;2.80;2.60;;;21.90;56.50;;;;;;5046939;28;20718;-44
2023/07/22 06:01:32;;;;;;;2.60;2.40;;;21.90;55.60;;;;;;5046209;28;20243;-44
2023/07/22 06:03:58;;;;;;;3.37;2.50;;;22.00;55.50;;;;;;5045810;28;20860;-44
2023/07/22 06:06:23;;;;;;;2.90;2.60;;;22.10;55.40;;;;;;5043462;28;20651;-46
2023/07/22 06:08:49;;;;;;;3.77;2.27;;;21.90;56.00;;;;;;5044077;28;20200;-45
2023/07/22 06:11:14;;;;;;;3.10;2.77;;;22.00;56.20;;;;;;5049106;28;20268;-43
2023/07/22 06:13:40;;;;;;;4.13;3.40;;;21.80;55.90;;;;;;5045400;28;20240;-44
2023/07/22 06:16:06;;;;;;;2.73;2.50;;;21.80;55.80;;;;;;5047249;28;20195;-44
2023/07/22 06:18:31;;;;;;;2.60;2.40;;;21.90;56.20;;;;;;5047299;28;20556;-44
2023/07/22 06:20:57;;;;;;;3.77;2.70;;;22.00;55.60;;;;;;5052000;28;20268;-44
2023/07/22 06:23:22;;;;;;;3.30;2.67;;;22.20;55.70;;;;;;5053274;28;20197;-44
2023/07/22 06:25:48;;;;;;;3.43;2.40;;;22.50;55.30;;;;;;5053235;28;20228;-45
2023/07/22 06:28:14;;;;;;;3.73;2.60;;;22.80;54.20;;;;;;5052320;28;20555;-45
2023/07/22 06:30:39;;;;;;;2.73;2.53;;;22.90;53.40;;;;;;5050363;28;20571;-46
2023/07/22 06:33:05;;;;;;;3.00;2.50;;;22.50;54.70;;;;;;5052032;28;20184;-44
2023/07/22 06:35:31;;;;;;;2.57;2.37;;;22.70;54.40;;;;;;5047140;28;20224;-44
2023/07/22 06:37:56;;;;;;;2.63;2.20;;;23.00;54.00;;;;;;5043477;28;20439;-44
2023/07/22 06:40:23;;;;;;;3.50;2.70;;;23.20;53.40;;;;;;5043133;28;20272;-46
2023/07/22 06:42:49;;;;;;;2.83;2.43;;;23.20;53.10;;;;;;5043261;28;20245;-45
2023/07/22 06:45:14;;;;;;;2.77;2.57;;;23.40;53.10;;;;;;5050620;28;20946;-44
2023/07/22 06:47:40;;;;;;;2.70;2.50;;;23.30;53.00;;;;;;5051641;28;20712;-44
2023/07/22 06:50:06;;;;;;;2.97;2.63;;;23.40;51.90;;;;;;5051272;28;20203;-44
2023/07/22 06:52:32;;;;;;;3.00;2.70;;;23.40;52.00;;;;;;5051983;28;20223;-44
2023/07/22 06:54:58;;;;;;;4.00;2.70;;;23.40;52.10;;;;;;5053516;28;20482;-46
2023/07/22 06:57:25;;;;;;;3.03;2.53;;;23.50;51.70;;;;;;5045728;28;20833;-44
2023/07/22 06:59:53;;;;;;;3.47;2.50;;;23.40;51.30;;;;;;5045370;28;20227;-45
2023/07/22 07:02:19;;;;;;;5.30;2.63;;;23.60;51.70;;;;;;5048109;28;20465;-45
2023/07/22 07:04:45;;;;;;;3.03;2.70;;;23.60;51.90;;;;;;5048388;28;20456;-44
2023/07/22 07:07:12;;;;;;;2.67;2.47;;;23.90;51.40;;;;;;5046725;28;20189;-45
2023/07/22 07:09:38;;;;;;;3.50;2.80;;;24.10;51.40;;;;;;5042219;28;20201;-45
2023/07/22 07:12:04;;;;;;;3.07;2.87;;;24.30;50.80;;;;;;5045710;28;20453;-44
2023/07/22 07:14:29;;;;;;;2.83;2.60;;;24.60;50.60;;;;;;5050659;28;20236;-44
2023/07/22 07:16:55;;;;;;;2.90;2.60;;;24.70;49.90;;;;;;5048683;28;20458;-44
2023/07/22 07:19:21;;;;;;;4.80;2.90;;;24.80;49.40;;;;;;5048841;28;20223;-44
2023/07/22 07:21:47;;;;;;;3.40;2.33;;;25.00;49.40;;;;;;5042686;28;20504;-44
2023/07/22 07:24:13;;;;;;;2.93;2.73;;;25.10;49.30;;;;;;5046490;28;20235;-45
2023/07/22 07:26:38;;;;;;;3.43;2.40;;;25.20;49.10;;;;;;5050010;28;20234;-46
2023/07/22 07:29:04;;;;;;;3.10;2.10;;;25.30;48.90;;;;;;5046155;28;20616;-44
2023/07/22 07:31:29;;;;;;;7.60;2.67;;;25.40;48.60;;;;;;5046028;28;20287;-44
2023/07/22 07:33:55;;;;;;;3.00;2.63;;;25.50;48.40;;;;;;5049856;28;20192;-45
2023/07/22 07:36:21;;;;;;;3.83;2.70;;;25.50;48.50;;;;;;5048467;28;20193;-45
2023/07/22 07:38:47;;;;;;;3.03;2.37;;;25.70;48.30;;;;;;5045763;28;20747;-45
2023/07/22 07:41:12;;;;;;;3.90;2.83;;;25.90;48.60;;;;;;5042729;28;20193;-43
2023/07/22 07:43:40;;;;;;;2.93;2.60;;;25.90;47.40;;;;;;5049037;28;20203;-43
2023/07/22 07:46:18;;;;;;;3.23;2.93;;;26.10;46.80;;;;;;5044730;28;20616;-43
2023/07/22 07:48:47;;;;;;;3.53;3.17;;;26.20;47.00;;;;;;5046011;28;20917;-43
2023/07/22 07:51:14;;;;;;;3.43;3.00;;;26.20;46.70;;;;;;5047701;28;20818;-43
2023/07/22 07:53:41;;;;;;;3.20;2.70;;;26.20;46.40;;;;;;5045559;28;20451;-43
2023/07/22 07:56:07;;;;;;;3.97;2.57;;;25.90;46.20;;;;;;5048079;28;21003;-43
2023/07/22 07:58:33;;;;;;;3.67;2.87;;;25.90;47.50;;;;;;5047424;28;20497;-43
2023/07/22 08:00:59;;;;;;;2.97;2.67;;;26.20;47.10;;;;;;5048623;28;20463;-43
2023/07/22 08:03:24;;;;;;;3.53;2.87;;;26.50;46.30;;;;;;5046893;28;20193;-44
2023/07/22 08:05:50;;;;;;;2.60;2.30;;;26.40;46.70;;;;;;5047876;28;20196;-43
2023/07/22 08:08:16;;;;;;;3.27;2.67;;;26.70;46.60;;;;;;5047275;28;20235;-43
2023/07/22 08:10:43;;;;;;;2.40;2.20;;;26.90;46.30;;;;;;5047854;28;20216;-43
2023/07/22 08:13:08;;;;;;;4.00;2.43;;;27.00;45.70;;;;;;5050157;28;20188;-44
2023/07/22 08:15:34;;;;;;;3.00;2.77;;;27.20;45.40;;;;;;5047917;28;20556;-44
2023/07/22 08:18:00;;;;;;;3.90;2.73;;;27.00;45.10;;;;;;5048998;28;20192;-44
2023/07/22 08:20:25;;;;;;;2.70;2.50;;;27.20;45.50;;;;;;5043209;28;20192;-44
2023/07/22 08:22:51;;;;;;;3.93;2.30;;;27.50;43.90;;;;;;5048924;28;20192;-45
2023/07/22 08:25:16;;;;;;;3.10;2.80;;;27.30;44.70;;;;;;5049298;28;20238;-42
2023/07/22 08:27:42;;;;;;;2.50;2.30;;;27.60;43.80;;;;;;5046044;28;20216;-42
2023/07/22 08:30:08;;;;;;;2.53;2.33;;;27.90;43.00;;;;;;5044371;28;20185;-42
2023/07/22 08:32:34;;;;;;;2.30;2.10;;;27.70;42.50;;;;;;5042820;28;20280;-43
2023/07/22 08:34:59;;;;;;;5.50;2.53;;;27.90;43.40;;;;;;5045465;28;21041;-43
2023/07/22 08:37:25;;;;;;;2.70;2.30;;;28.10;42.00;;;;;;5048328;28;20196;-42
2023/07/22 08:39:51;;;;;;;2.70;2.50;;;28.30;41.80;;;;;;5043867;28;20200;-42
2023/07/22 08:42:19;;;;;;;5.33;2.80;;;28.40;41.90;;;;;;5046425;28;20189;-42
2023/07/22 08:44:48;;;;;;;2.70;2.13;;;28.70;41.80;;;;;;5048717;28;20539;-44
2023/07/22 08:47:16;;;;;;;2.90;2.40;;;28.90;40.80;;;;;;5042988;28;20478;-46
2023/07/22 08:49:50;;;;;;;2.30;2.20;;;28.90;41.30;;;;;;5044518;28;20492;-46
2023/07/22 08:52:17;;;;;;;2.50;2.23;;;29.10;40.00;;;;;;5048767;28;20777;-44
2023/07/22 08:54:44;;;;;;;2.50;2.30;;;29.30;40.20;;;;;;5044314;28;20494;-45
2023/07/22 08:57:11;;;;;;;2.80;2.60;;;29.40;40.10;;;;;;5044230;28;20507;-46
2023/07/22 08:59:37;;;;;;;2.60;2.40;;;29.60;38.90;;;;;;5041760;28;20435;-46
2023/07/22 09:02:04;;;;;;;2.90;2.40;;;29.60;38.40;;;;;;5045611;28;20439;-45
2023/07/22 09:04:30;;;;;;;2.60;2.20;;;29.70;38.20;;;;;;5048368;28;20443;-47
2023/07/22 09:06:56;;;;;;;2.93;2.63;;;29.70;38.50;;;;;;5049785;28;20502;-43
2023/07/22 09:09:24;;;;;;;2.53;2.27;;;29.70;38.30;;;;;;5049334;28;20688;-46
2023/07/22 09:11:49;;;;;;;2.20;2.10;;;29.80;37.60;;;;;;5046970;28;20879;-47
2023/07/22 09:14:20;;;;;;;5.20;2.10;;;29.40;36.50;;;;;;5049571;28;20623;-45
2023/07/22 09:16:46;;;;;;;2.70;2.33;;;29.10;36.10;;;;;;5047182;28;20200;-44
2023/07/22 09:19:12;;;;;;;2.10;1.90;;;29.00;36.10;;;;;;5046213;28;20431;-46
2023/07/22 09:21:38;;;;;;;4.53;2.03;;;29.00;34.70;;;;;;5046456;28;20542;-47
2023/07/22 09:24:24;;;;;;;1.97;1.87;;;29.00;34.40;;;;;;5048099;28;20527;-43
2023/07/22 09:26:50;;;;;;;2.73;2.53;;;28.70;33.90;;;;;;5046052;28;20220;-45
2023/07/22 09:29:16;;;;;;;2.43;2.23;;;28.80;36.20;;;;;;5045032;28;20439;-43
2023/07/22 09:31:52;;;;;;;2.30;2.10;;;28.90;38.70;;;;;;5041779;28;20458;-43
2023/07/22 09:34:19;;;;;;;3.00;2.70;;;29.10;38.60;;;;;;5046404;28;20690;-45
2023/07/22 09:36:52;;;;;;;3.03;2.10;;;29.20;38.10;;;;;;5045291;28;20458;-47
2023/07/22 09:39:18;;;;;;;2.73;2.00;;;29.20;38.00;;;;;;5045473;28;20461;-43
2023/07/22 09:41:43;;;;;;;5.03;3.43;;;29.30;38.00;;;;;;5046900;28;20450;-43
2023/07/22 09:44:12;;;;;;;2.73;2.43;;;29.40;38.50;;;;;;5045547;28;20443;-46
2023/07/22 09:46:38;;;;;;;2.50;2.30;;;29.40;37.80;;;;;;5045329;28;20532;-46
2023/07/22 09:49:05;;;;;;;2.57;2.27;;;29.50;37.50;;;;;;5051144;28;20440;-46
2023/07/22 09:51:39;;;;;;;2.60;2.40;;;29.50;37.70;;;;;;5053892;28;20196;-43
2023/07/22 09:54:05;;;;;;;4.80;2.70;;;29.60;38.10;;;;;;5042765;28;20465;-42
2023/07/22 09:56:32;;;;;;;7.63;5.10;;;29.60;37.60;;;;;;5048030;28;20435;-42
2023/07/22 09:58:59;;;;;;;6.90;5.30;;;29.70;37.20;;;;;;5052208;28;20446;-42
2023/07/22 10:01:26;;;;;;;8.63;7.73;;;29.80;37.00;;;;;;5046923;28;20849;-43
2023/07/22 10:03:56;;;;;;;6.93;5.10;;;29.90;37.70;;;;;;5050069;28;20442;-45
2023/07/22 10:06:28;;;;;;;10.03;4.37;;;29.90;35.80;;;;;;5053144;28;20474;-42
2023/07/22 10:08:56;;;;;;;12.73;6.93;;;29.90;35.60;;;;;;5053013;28;20516;-42
2023/07/22 10:11:25;;;;;;;4.00;3.23;;;30.20;36.00;;;;;;5052038;28;20786;-43
2023/07/22 10:13:52;;;;;;;3.13;2.70;;;30.30;35.40;;;;;;5051652;28;20482;-43
2023/07/22 10:16:18;;;;;;;5.80;4.67;;;30.50;33.90;;;;;;5050496;28;20455;-43
2023/07/22 10:18:45;;;;;;;3.90;3.07;;;30.70;34.70;;;;;;5049952;28;20534;-43
2023/07/22 10:21:12;;;;;;;6.30;4.90;;;30.80;33.70;;;;;;5052929;28;20457;-43
2023/07/22 10:23:38;;;;;;;3.67;2.37;;;31.10;34.50;;;;;;5050089;28;20446;-45
2023/07/22 10:26:05;;;;;;;2.90;2.70;;;31.10;32.60;;;;;;5048663;28;20435;-48
2023/07/22 10:28:32;;;;;;;4.03;2.70;;;31.10;32.70;;;;;;5051183;28;20462;-46
2023/07/22 10:30:58;;;;;;;3.23;2.67;;;31.00;32.10;;;;;;5046728;28;20459;-45
2023/07/22 10:33:25;;;;;;;3.40;2.77;;;30.70;32.50;;;;;;5048113;28;20466;-43
2023/07/22 10:36:08;;;;;;;4.40;3.90;;;30.60;33.00;;;;;;5042540;28;20485;-47
2023/07/22 10:38:35;;;;;;;3.80;3.00;;;30.60;34.30;;;;;;5051967;28;20491;-46
2023/07/22 10:41:10;;;;;;;3.73;3.00;;;30.40;34.60;;;;;;5050579;28;20454;-46
2023/07/22 10:43:36;;;;;;;7.67;5.53;;;30.50;34.10;;;;;;5050522;28;20454;-43
2023/07/22 10:46:09;;;;;;;7.80;4.40;;;30.60;34.90;;;;;;5052585;28;20435;-44
2023/07/22 10:48:39;;;;;;;3.67;3.30;;;30.70;34.20;;;;;;5051972;28;20189;-48
2023/07/22 10:51:06;;;;;;;4.53;2.93;;;30.80;34.50;;;;;;5049571;28;20447;-47
2023/07/22 10:53:32;;;;;;;3.57;2.87;;;31.00;33.60;;;;;;5052010;28;20846;-43
2023/07/22 10:56:11;;;;;;;2.90;2.57;;;31.00;33.50;;;;;;5053149;28;20474;-48
2023/07/22 10:58:57;;;;;;;6.83;2.50;;;31.10;33.90;;;;;;5052473;28;20228;-44
2023/07/22 11:01:28;;;;;;;3.80;2.90;;;31.20;32.40;;;;;;5051033;28;20451;-47
2023/07/22 11:04:17;;;;;;;3.30;2.27;;;31.40;33.50;;;;;;5051315;28;20447;-46
2023/07/22 11:06:48;;;;;;;2.70;1.97;;;31.60;32.50;;;;;;5045020;28;20526;-43
2023/07/22 11:09:33;;;;;;;2.60;2.40;;;31.70;32.30;;;;;;5047762;28;20451;-43
2023/07/22 11:12:18;;;;;;;3.77;2.00;;;31.80;32.40;;;;;;5040792;28;20550;-45
2023/07/22 11:14:51;;;;;;;2.20;2.00;;;31.80;32.10;;;;;;5050633;28;20851;-44
2023/07/22 11:17:26;;;;;;;4.83;2.10;;;31.80;32.50;;;;;;5051569;28;20450;-43
2023/07/22 11:19:52;;;;;;;4.23;2.20;;;31.90;32.60;;;;;;5042650;28;20531;-46
2023/07/22 11:22:18;;;;;;;2.10;1.90;;;31.30;30.80;;;;;;5045844;28;20447;-47
2023/07/22 11:24:43;;;;;;;2.10;1.90;;;31.20;31.40;;;;;;5049184;28;20203;-43
2023/07/22 11:27:09;;;;;;;2.13;1.70;;;31.40;32.00;;;;;;5050418;28;20189;-48
2023/07/22 11:29:35;;;;;;;2.03;1.93;;;31.50;31.00;;;;;;5049872;28;20196;-43
2023/07/22 11:32:02;;;;;;;2.30;2.07;;;31.40;29.80;;;;;;5051216;28;20192;-45
2023/07/22 11:34:27;;;;;;;1.90;1.60;;;31.40;29.30;;;;;;5049976;28;20478;-43
2023/07/22 11:36:55;;;;;;;2.30;2.10;;;31.10;28.90;;;;;;5050814;28;20439;-44
2023/07/22 11:39:23;;;;;;;1.87;1.70;;;30.90;29.50;;;;;;5049949;28;20192;-43
2023/07/22 11:41:50;;;;;;;2.30;2.10;;;30.90;29.50;;;;;;5049479;28;20439;-45
2023/07/22 11:44:18;;;;;;;2.17;1.97;;;30.90;30.80;;;;;;5052354;28;21275;-45
2023/07/22 11:47:03;;;;;;;2.57;2.03;;;31.00;31.00;;;;;;5052133;28;20438;-45
2023/07/22 11:49:31;;;;;;;3.40;1.83;;;30.90;31.20;;;;;;5048374;28;20470;-45
2023/07/22 11:51:59;;;;;;;1.50;1.40;;;30.80;31.70;;;;;;5048970;28;20911;-44
2023/07/22 11:54:25;;;;;;;2.50;1.63;;;31.00;31.20;;;;;;5051212;28;21022;-43
2023/07/22 11:56:51;;;;;;;2.40;1.90;;;31.10;29.90;;;;;;5049408;28;20436;-46
2023/07/22 11:59:17;;;;;;;1.93;1.80;;;31.20;30.40;;;;;;5050449;28;20495;-42
2023/07/22 12:01:46;;;;;;;2.20;2.00;;;31.40;31.10;;;;;;5049843;28;20699;-44
2023/07/22 12:04:14;;;;;;;1.97;1.87;;;31.60;30.30;;;;;;5050851;28;20242;-46
2023/07/22 12:06:41;;;;;;;1.90;1.80;;;31.60;29.30;;;;;;5045038;28;20459;-44
2023/07/22 12:09:09;;;;;;;1.80;1.70;;;31.40;29.70;;;;;;5049860;28;20463;-47
2023/07/22 12:11:35;;;;;;;2.20;2.10;;;31.50;28.80;;;;;;5043840;28;20442;-46
2023/07/22 12:14:07;;;;;;;2.33;1.93;;;31.40;29.00;;;;;;5039525;28;20985;-47
2023/07/22 12:16:39;;;;;;;2.20;2.00;;;31.20;29.70;;;;;;5045699;28;20192;-44
2023/07/22 12:19:05;;;;;;;4.03;2.10;;;31.40;29.50;;;;;;5048322;28;20492;-47
2023/07/22 12:21:31;;;;;;;1.80;1.70;;;31.60;29.20;;;;;;5049611;28;20450;-44
2023/07/22 12:23:57;;;;;;;1.70;1.60;;;31.70;29.00;;;;;;5051891;28;20419;-44
2023/07/22 12:26:23;;;;;;;2.20;2.10;;;31.40;29.00;;;;;;5049981;28;20185;-44
2023/07/22 12:28:48;;;;;;;1.90;1.70;;;31.40;29.00;;;;;;5049626;28;20308;-44
2023/07/22 12:31:14;;;;;;;2.93;2.17;;;31.50;28.80;;;;;;5046648;28;20246;-47
2023/07/22 12:33:39;;;;;;;2.73;2.20;;;31.40;29.00;;;;;;5049103;28;20197;-44
2023/07/22 12:36:05;;;;;;;2.43;2.23;;;31.20;28.90;;;;;;5050123;28;20312;-47
2023/07/22 12:38:31;;;;;;;4.50;2.30;;;30.90;29.10;;;;;;5049036;28;20275;-43
2023/07/22 12:40:57;;;;;;;2.40;2.20;;;30.30;30.00;;;;;;5049094;28;20200;-43
2023/07/22 12:43:23;;;;;;;2.17;2.03;;;30.20;30.10;;;;;;5046529;28;20443;-45
2023/07/22 12:45:48;;;;;;;3.07;2.70;;;30.30;30.70;;;;;;5048574;28;20287;-45